Terminal Aerodrome Forecast
Issued by NWS

Home | Current Version | Previous Version | Text Only | Print | Product List | Glossary On
Versions: 1 2 3 4 5 6 7 8 9 10 11 12 13 14 15 16 17 18
000
FTPQ31 PGUM 181728
TAFGUM
TAF

TAF
PGSN 181728Z 1818/1918 29014G24KT P6SM VCSH SCT012 BKN050 OVC110
      TEMPO 1818/1822 28018G30KT 3SM SHRA BKN012 OVC025
     FM190100 31012G22KT P6SM VCSH SCT015 SCT025 BKN120=

USA.gov is the U.S. government's official web portal to all federal, state and local government web resources and services.